createdAt,value
2019-04-25T00:00:36.515Z,10.40
2019-04-25T00:03:26.263Z,10.40
2019-04-25T00:06:12.183Z,10.30
2019-04-25T00:08:57.546Z,10.30
2019-04-25T00:11:43.652Z,10.30
2019-04-25T00:14:31.465Z,10.20
2019-04-25T00:17:17.066Z,10.20
2019-04-25T00:20:02.307Z,10.20
2019-04-25T00:22:49.301Z,10.30
2019-04-25T00:25:53.070Z,10.20
2019-04-25T00:28:38.055Z,10.20
2019-04-25T00:31:25.906Z,10.10
2019-04-25T00:34:11.760Z,10.10
2019-04-25T00:36:56.835Z,10.00
2019-04-25T00:39:44.764Z,10.10
2019-04-25T00:42:29.332Z,10.10
2019-04-25T00:45:14.294Z,10.20
2019-04-25T00:47:59.221Z,10.10
2019-04-25T00:50:44.572Z,10.00
2019-04-25T00:53:29.649Z,9.90
2019-04-25T00:56:14.354Z,9.90
2019-04-25T00:59:06.907Z,9.80
2019-04-25T01:01:59.447Z,9.80
2019-04-25T01:04:45.157Z,9.90
2019-04-25T01:07:30.167Z,9.90
2019-04-25T01:10:15.997Z,10.00
2019-04-25T01:13:01.109Z,10.00
2019-04-25T01:15:49.066Z,10.00
2019-04-25T01:18:35.451Z,10.00
2019-04-25T01:21:21.205Z,10.00
2019-04-25T01:24:06.472Z,10.00
2019-04-25T01:26:51.680Z,9.90
2019-04-25T01:29:36.724Z,10.00
2019-04-25T01:32:23.781Z,10.00
2019-04-25T01:35:28.698Z,10.00
2019-04-25T01:38:15.747Z,10.00
2019-04-25T01:41:05.253Z,10.00
2019-04-25T01:43:56.634Z,10.00
2019-04-25T01:46:41.369Z,10.00
2019-04-25T01:49:26.820Z,10.00
2019-04-25T01:52:13.565Z,10.00
2019-04-25T01:54:58.883Z,9.90
2019-04-25T01:57:45.322Z,10.00
2019-04-25T02:00:33.297Z,9.90
2019-04-25T02:03:18.671Z,9.90
2019-04-25T02:06:04.944Z,9.90
2019-04-25T02:08:49.786Z,9.90
2019-04-25T02:11:36.755Z,10.00
2019-04-25T02:14:21.528Z,10.00
2019-04-25T02:17:06.372Z,10.10
2019-04-25T02:19:52.105Z,10.10
2019-04-25T02:22:37.584Z,10.10
2019-04-25T02:25:23.003Z,10.10
2019-04-25T02:28:09.566Z,10.10
2019-04-25T02:30:58.424Z,10.10
2019-04-25T02:33:44.097Z,10.10
2019-04-25T02:36:28.250Z,10.00
2019-04-25T02:39:17.414Z,10.00
2019-04-25T02:42:06.248Z,9.90
2019-04-25T02:44:51.419Z,9.80
2019-04-25T02:47:46.320Z,9.70
2019-04-25T02:50:36.119Z,9.70
2019-04-25T02:53:23.998Z,9.50
2019-04-25T02:56:27.394Z,9.40
2019-04-25T02:58:58.499Z,9.30
2019-04-25T03:01:44.537Z,9.30
2019-04-25T03:04:29.620Z,9.30
2019-04-25T03:07:17.580Z,9.30
2019-04-25T03:10:06.117Z,9.30
2019-04-25T03:12:54.248Z,9.30
2019-04-25T03:15:38.663Z,9.40
2019-04-25T03:18:25.463Z,9.40
2019-04-25T03:21:21.614Z,9.40
2019-04-25T03:24:10.253Z,9.50
2019-04-25T03:26:53.420Z,9.50
2019-04-25T03:29:38.127Z,9.50
2019-04-25T03:32:25.817Z,9.50
2019-04-25T03:35:10.109Z,9.60
2019-04-25T03:37:55.059Z,9.60
2019-04-25T03:40:40.009Z,9.60
2019-04-25T03:43:24.609Z,9.60
2019-04-25T03:46:10.288Z,9.70
2019-04-25T03:48:55.281Z,9.70
2019-04-25T03:51:40.259Z,9.60
2019-04-25T03:54:25.074Z,9.50
2019-04-25T03:57:10.389Z,9.50
2019-04-25T03:59:55.558Z,9.50
2019-04-25T04:02:40.209Z,9.50
2019-04-25T04:05:25.149Z,9.40
2019-04-25T04:08:10.163Z,9.40
2019-04-25T04:10:55.539Z,9.40
2019-04-25T04:13:40.623Z,9.40
2019-04-25T04:16:27.370Z,9.50
2019-04-25T04:19:14.425Z,9.40
2019-04-25T04:22:03.064Z,9.40
2019-04-25T04:24:49.934Z,9.40
2019-04-25T04:27:35.182Z,9.40
2019-04-25T04:30:20.241Z,9.50
2019-04-25T04:33:05.017Z,9.60
2019-04-25T04:35:49.910Z,9.70
2019-04-25T04:38:34.730Z,9.80
2019-04-25T04:41:19.631Z,10.00
2019-04-25T04:44:04.415Z,10.20
2019-04-25T04:46:49.263Z,10.30
2019-04-25T04:49:34.254Z,10.40
2019-04-25T04:52:19.198Z,10.50
2019-04-25T04:55:09.780Z,10.60
2019-04-25T04:57:54.241Z,10.70
2019-04-25T05:00:39.174Z,10.70
2019-04-25T05:03:38.083Z,10.80
2019-04-25T05:06:25.236Z,11.00
2019-04-25T05:09:14.370Z,11.00
2019-04-25T05:11:59.201Z,11.20
2019-04-25T05:14:44.480Z,11.30
2019-04-25T05:17:29.609Z,11.40
2019-04-25T05:20:17.303Z,11.40
2019-04-25T05:23:03.186Z,11.50
2019-04-25T05:25:48.453Z,11.50
2019-04-25T05:28:33.688Z,11.60
2019-04-25T05:31:26.238Z,11.60
2019-04-25T05:34:11.233Z,11.60
2019-04-25T05:36:57.228Z,11.60
2019-04-25T05:39:43.487Z,11.70
2019-04-25T05:42:49.660Z,11.70
2019-04-25T05:45:34.553Z,11.70
2019-04-25T05:48:19.325Z,11.90
2019-04-25T05:51:05.285Z,12.00
2019-04-25T05:53:50.143Z,12.10
2019-04-25T05:56:35.088Z,12.10
2019-04-25T05:59:19.954Z,12.20
2019-04-25T06:02:05.370Z,12.30
2019-04-25T06:04:50.566Z,12.30
2019-04-25T06:07:36.898Z,12.50
2019-04-25T06:10:25.685Z,12.50
2019-04-25T06:13:31.373Z,12.50
2019-04-25T06:16:20.633Z,12.60
2019-04-25T06:19:25.242Z,12.80
2019-04-25T06:22:15.375Z,12.80
2019-04-25T06:25:06.119Z,12.90
2019-04-25T06:27:58.629Z,13.00
2019-04-25T06:30:40.603Z,13.00
2019-04-25T06:33:27.006Z,13.10
2019-04-25T06:36:13.874Z,13.20
2019-04-25T06:38:58.980Z,13.30
2019-04-25T06:41:44.184Z,13.50
2019-04-25T06:44:32.596Z,13.60
2019-04-25T06:47:35.571Z,13.70
2019-04-25T06:50:23.094Z,13.90
2019-04-25T06:53:09.423Z,14.00
2019-04-25T06:55:54.594Z,14.20
2019-04-25T06:58:39.773Z,14.30
2019-04-25T07:01:25.896Z,14.40
2019-04-25T07:04:11.750Z,14.50
2019-04-25T07:07:09.408Z,14.60
2019-04-25T07:09:43.777Z,14.70
2019-04-25T07:12:31.369Z,14.80
2019-04-25T07:15:16.923Z,14.80
2019-04-25T07:18:03.682Z,14.90
2019-04-25T07:20:50.427Z,15.10
2019-04-25T07:23:35.826Z,15.30
2019-04-25T07:26:25.025Z,15.50
2019-04-25T07:29:29.290Z,15.70
2019-04-25T07:32:18.751Z,15.80
2019-04-25T07:35:04.917Z,15.90
2019-04-25T07:38:09.734Z,16.10
2019-04-25T07:40:54.705Z,16.20
2019-04-25T07:43:39.973Z,16.30
2019-04-25T07:46:26.196Z,16.50
2019-04-25T07:49:11.348Z,16.60
2019-04-25T07:51:56.735Z,16.80
2019-04-25T07:54:41.319Z,16.90
2019-04-25T07:57:26.786Z,16.90
2019-04-25T08:00:15.589Z,16.90
2019-04-25T08:03:00.822Z,16.90
2019-04-25T08:05:47.622Z,16.90
2019-04-25T08:08:33.924Z,16.90
2019-04-25T08:11:21.186Z,17.10
2019-04-25T08:14:10.473Z,17.10
2019-04-25T08:16:57.464Z,17.10
2019-04-25T08:19:42.716Z,17.10
2019-04-25T08:22:30.043Z,17.10
2019-04-25T08:25:15.878Z,17.10
2019-04-25T08:28:00.558Z,17.20
2019-04-25T08:30:46.858Z,17.20
2019-04-25T08:33:32.687Z,17.30
2019-04-25T08:36:18.497Z,17.50
2019-04-25T08:39:04.853Z,17.80
2019-04-25T08:41:51.347Z,17.90
2019-04-25T08:44:36.942Z,18.20
2019-04-25T08:47:24.228Z,18.40
2019-04-25T08:50:29.037Z,18.40
2019-04-25T08:53:11.939Z,18.40
2019-04-25T08:55:59.174Z,18.20
2019-04-25T08:58:48.587Z,18.10
2019-04-25T09:01:42.122Z,18.00
2019-04-25T09:04:34.787Z,17.80
2019-04-25T09:07:19.774Z,17.70
2019-04-25T09:10:05.779Z,17.70
2019-04-25T09:12:50.876Z,17.60
2019-04-25T09:15:36.974Z,17.50
2019-04-25T09:18:23.976Z,17.50
2019-04-25T09:21:09.178Z,17.50
2019-04-25T09:23:55.578Z,17.60
2019-04-25T09:26:43.913Z,17.60
2019-04-25T09:29:29.029Z,17.70
2019-04-25T09:32:14.187Z,17.80
2019-04-25T09:34:59.065Z,18.00
2019-04-25T09:37:45.937Z,18.10
2019-04-25T09:40:31.408Z,18.40
2019-04-25T09:43:16.753Z,18.40
2019-04-25T09:46:03.820Z,18.30
2019-04-25T09:48:54.255Z,18.30
2019-04-25T09:51:42.800Z,18.30
2019-04-25T09:54:46.903Z,18.60
2019-04-25T09:57:39.564Z,18.80
2019-04-25T10:00:29.018Z,19.00
2019-04-25T10:03:14.002Z,19.10
2019-04-25T10:05:59.492Z,19.20
2019-04-25T10:08:45.360Z,19.10
2019-04-25T10:11:33.433Z,19.10
2019-04-25T10:14:34.846Z,19.10
2019-04-25T10:17:19.998Z,19.30
2019-04-25T10:20:05.703Z,19.40
2019-04-25T10:22:50.716Z,19.40
2019-04-25T10:25:38.018Z,19.40
2019-04-25T10:28:24.314Z,19.30
2019-04-25T10:31:10.440Z,19.30
2019-04-25T10:33:55.548Z,19.50
2019-04-25T10:36:42.266Z,19.60
2019-04-25T10:39:29.451Z,19.60
2019-04-25T10:42:14.881Z,19.80
2019-04-25T10:45:00.957Z,19.90
2019-04-25T10:47:46.679Z,19.80
2019-04-25T10:50:32.024Z,20.00
2019-04-25T10:53:17.390Z,20.10
2019-04-25T10:56:05.985Z,20.10
2019-04-25T10:58:50.664Z,20.10
2019-04-25T11:01:35.959Z,20.30
2019-04-25T11:04:23.205Z,20.50
2019-04-25T11:07:10.529Z,20.80
2019-04-25T11:09:55.660Z,21.00
2019-04-25T11:12:41.505Z,21.00
2019-04-25T11:15:27.394Z,21.00
2019-04-25T11:18:13.167Z,21.00
2019-04-25T11:20:59.669Z,20.90
2019-04-25T11:23:47.624Z,21.10
2019-04-25T11:26:34.559Z,21.20
2019-04-25T11:29:19.713Z,21.10
2019-04-25T11:32:05.628Z,21.10
2019-04-25T11:34:50.803Z,21.30
2019-04-25T11:37:36.154Z,21.30
2019-04-25T11:40:35.518Z,21.20
2019-04-25T11:43:20.399Z,21.20
2019-04-25T11:46:06.864Z,21.30
2019-04-25T11:48:52.676Z,21.40
2019-04-25T11:51:38.796Z,21.50
2019-04-25T11:54:24.418Z,21.60
2019-04-25T11:57:09.794Z,21.70
2019-04-25T11:59:55.817Z,21.80
2019-04-25T12:02:41.281Z,21.80
2019-04-25T12:05:26.982Z,21.90
2019-04-25T12:08:13.434Z,21.90
2019-04-25T12:10:58.623Z,21.90
2019-04-25T12:13:45.951Z,21.90
2019-04-25T12:16:30.870Z,22.00
2019-04-25T12:19:15.683Z,22.20
2019-04-25T12:22:00.886Z,22.40
2019-04-25T12:24:46.638Z,22.60
2019-04-25T12:27:32.256Z,22.90
2019-04-25T12:30:17.471Z,23.10
2019-04-25T12:33:03.368Z,23.20
2019-04-25T12:35:50.008Z,23.10
2019-04-25T12:38:36.786Z,23.10
2019-04-25T12:41:21.727Z,23.10
2019-04-25T12:44:11.568Z,23.10
2019-04-25T12:46:59.493Z,23.00
2019-04-25T12:49:46.590Z,23.00
2019-04-25T12:52:31.316Z,22.90
2019-04-25T12:55:17.106Z,22.80
2019-04-25T12:58:03.490Z,22.80
2019-04-25T13:00:52.770Z,22.80
2019-04-25T13:03:36.168Z,22.70
2019-04-25T13:06:21.004Z,22.50
2019-04-25T13:09:07.878Z,22.50
2019-04-25T13:11:53.515Z,22.40
2019-04-25T13:14:39.993Z,22.50
2019-04-25T13:17:24.944Z,22.60
2019-04-25T13:20:10.980Z,22.60
2019-04-25T13:22:56.197Z,22.60
2019-04-25T13:25:41.832Z,22.50
2019-04-25T13:28:48.663Z,22.50
2019-04-25T13:31:38.363Z,22.50
2019-04-25T13:34:36.071Z,22.80
2019-04-25T13:37:14.156Z,22.80
2019-04-25T13:40:00.473Z,22.80
2019-04-25T13:42:45.771Z,22.80
2019-04-25T13:45:30.958Z,22.80
2019-04-25T13:48:16.103Z,22.80
2019-04-25T13:51:01.069Z,22.80
2019-04-25T13:53:46.437Z,22.80
2019-04-25T13:56:33.391Z,22.70
2019-04-25T13:59:18.817Z,22.80
2019-04-25T14:02:06.127Z,22.90
2019-04-25T14:04:51.713Z,23.00
2019-04-25T14:07:38.313Z,23.20
2019-04-25T14:10:25.036Z,23.30
2019-04-25T14:13:10.943Z,23.30
2019-04-25T14:16:00.607Z,23.30
2019-04-25T14:18:56.700Z,23.30
2019-04-25T14:21:43.422Z,23.30
2019-04-25T14:24:30.762Z,23.30
2019-04-25T14:27:15.856Z,23.30
2019-04-25T14:30:03.760Z,23.30
2019-04-25T14:32:49.038Z,23.30
2019-04-25T14:35:34.515Z,23.20
2019-04-25T14:38:19.518Z,23.20
2019-04-25T14:41:05.413Z,23.20
2019-04-25T14:43:50.929Z,23.20
2019-04-25T14:46:36.270Z,23.30
2019-04-25T14:49:21.652Z,23.50
2019-04-25T14:52:07.896Z,23.80
2019-04-25T14:54:54.790Z,24.20
2019-04-25T14:57:39.843Z,24.40
2019-04-25T15:00:32.542Z,24.70
2019-04-25T15:03:17.662Z,25.10
2019-04-25T15:06:03.128Z,25.50
2019-04-25T15:08:48.073Z,25.60
2019-04-25T15:11:33.575Z,25.70
2019-04-25T15:14:19.353Z,26.00
2019-04-25T15:17:06.548Z,26.30
2019-04-25T15:19:51.903Z,26.80
2019-04-25T15:22:36.970Z,27.40
2019-04-25T15:25:22.035Z,27.60
2019-04-25T15:28:07.408Z,27.70
2019-04-25T15:30:53.239Z,27.70
2019-04-25T15:33:38.671Z,27.60
2019-04-25T15:36:25.687Z,27.80
2019-04-25T15:39:28.948Z,28.00
2019-04-25T15:42:17.325Z,28.40
2019-04-25T15:45:08.901Z,29.20
2019-04-25T15:47:55.222Z,29.60
2019-04-25T15:50:40.583Z,29.80
2019-04-25T15:53:25.769Z,29.50
2019-04-25T15:56:10.825Z,29.30
2019-04-25T15:58:56.178Z,28.60
2019-04-25T16:01:41.759Z,28.20
2019-04-25T16:04:27.305Z,27.70
2019-04-25T16:07:13.973Z,27.40
2019-04-25T16:09:58.884Z,26.70
2019-04-25T16:12:44.023Z,26.00
2019-04-25T16:15:29.194Z,25.70
2019-04-25T16:18:14.661Z,25.20
2019-04-25T16:21:00.037Z,24.90
2019-04-25T16:23:45.203Z,24.60
2019-04-25T16:26:30.037Z,24.40
2019-04-25T16:29:15.351Z,24.10
2019-04-25T16:32:02.280Z,24.00
2019-04-25T16:34:47.610Z,24.00
2019-04-25T16:37:33.021Z,23.90
2019-04-25T16:40:18.535Z,23.80
2019-04-25T16:43:05.727Z,23.70
2019-04-25T16:45:51.148Z,23.60
2019-04-25T16:48:36.311Z,23.70
2019-04-25T16:51:22.049Z,23.60
2019-04-25T16:54:07.320Z,23.50
2019-04-25T16:56:52.684Z,23.30
2019-04-25T16:59:37.718Z,23.10
2019-04-25T17:02:32.775Z,23.00
2019-04-25T17:05:13.537Z,22.80
2019-04-25T17:07:58.827Z,22.70
2019-04-25T17:10:44.197Z,22.60
2019-04-25T17:13:32.113Z,22.50
2019-04-25T17:16:36.817Z,22.50
2019-04-25T17:19:24.081Z,22.40
2019-04-25T17:22:09.295Z,22.30
2019-04-25T17:24:55.960Z,22.20
2019-04-25T17:27:41.345Z,22.20
2019-04-25T17:30:28.288Z,22.10
2019-04-25T17:33:17.842Z,22.00
2019-04-25T17:36:19.917Z,21.90
2019-04-25T17:39:10.405Z,21.80
2019-04-25T17:41:54.974Z,21.70
2019-04-25T17:44:40.576Z,21.60
2019-04-25T17:47:26.066Z,21.50
2019-04-25T17:50:11.453Z,21.40
2019-04-25T17:52:56.654Z,21.30
2019-04-25T17:55:41.799Z,21.20
2019-04-25T17:58:27.397Z,21.10
2019-04-25T18:01:14.728Z,21.00
2019-04-25T18:04:01.281Z,20.90
2019-04-25T18:06:46.410Z,20.90
2019-04-25T18:09:31.720Z,20.80
2019-04-25T18:12:18.744Z,20.60
2019-04-25T18:15:07.460Z,20.60
2019-04-25T18:17:52.730Z,20.50
2019-04-25T18:20:39.616Z,20.40
2019-04-25T18:23:40.194Z,20.30
2019-04-25T18:26:28.180Z,20.20
2019-04-25T18:29:18.414Z,20.10
2019-04-25T18:32:04.321Z,20.00
2019-04-25T18:34:57.400Z,19.90
2019-04-25T18:37:45.011Z,19.90
2019-04-25T18:40:48.519Z,19.80
2019-04-25T18:43:47.235Z,19.80
2019-04-25T18:46:34.709Z,19.70
2019-04-25T18:49:19.912Z,19.70
2019-04-25T18:52:07.025Z,19.70
2019-04-25T18:54:54.438Z,19.80
2019-04-25T18:57:47.706Z,19.80
2019-04-25T19:00:37.808Z,19.80
2019-04-25T19:03:41.561Z,19.80
2019-04-25T19:06:28.071Z,19.80
2019-04-25T19:09:13.511Z,19.80
2019-04-25T19:11:58.663Z,19.70
2019-04-25T19:14:44.010Z,19.70
2019-04-25T19:17:29.685Z,19.70
2019-04-25T19:20:15.198Z,19.60
2019-04-25T19:23:02.301Z,19.60
2019-04-25T19:25:47.865Z,19.50
2019-04-25T19:28:33.310Z,19.50
2019-04-25T19:31:18.982Z,19.40
2019-04-25T19:34:04.320Z,19.40
2019-04-25T19:36:49.682Z,19.40
2019-04-25T19:39:36.942Z,19.40
2019-04-25T19:42:23.852Z,19.40
2019-04-25T19:45:09.442Z,19.40
2019-04-25T19:47:54.590Z,19.40
2019-04-25T19:50:40.688Z,19.40
2019-04-25T19:53:27.086Z,19.30
2019-04-25T19:56:12.363Z,19.40
2019-04-25T19:58:57.405Z,19.40
2019-04-25T20:01:43.960Z,19.30
2019-04-25T20:04:33.665Z,19.40
2019-04-25T20:07:30.135Z,19.40
2019-04-25T20:10:20.084Z,19.40
2019-04-25T20:13:05.137Z,19.40
2019-04-25T20:15:50.393Z,19.30
2019-04-25T20:18:35.823Z,19.10
2019-04-25T20:21:21.281Z,18.90
2019-04-25T20:24:06.461Z,18.60
2019-04-25T20:26:52.528Z,18.40
2019-04-25T20:29:39.346Z,18.00
2019-04-25T20:32:24.296Z,17.80
2019-04-25T20:35:09.666Z,17.60
2019-04-25T20:37:54.458Z,17.50
2019-04-25T20:40:39.427Z,17.30
2019-04-25T20:43:24.298Z,17.30
2019-04-25T20:46:09.864Z,17.20
2019-04-25T20:48:55.052Z,17.00
2019-04-25T20:51:40.066Z,17.00
2019-04-25T20:54:25.385Z,16.90
2019-04-25T20:57:10.480Z,16.80
2019-04-25T20:59:56.010Z,16.70
2019-04-25T21:02:41.171Z,16.70
2019-04-25T21:05:26.550Z,16.60
2019-04-25T21:08:12.116Z,16.60
2019-04-25T21:10:57.903Z,16.50
2019-04-25T21:13:45.141Z,16.50
2019-04-25T21:16:47.698Z,16.40
2019-04-25T21:19:35.149Z,16.40
2019-04-25T21:22:20.246Z,16.30
2019-04-25T21:25:05.826Z,16.30
2019-04-25T21:27:51.234Z,16.20
2019-04-25T21:30:36.420Z,16.20
2019-04-25T21:33:22.182Z,16.20
2019-04-25T21:36:07.548Z,16.10
2019-04-25T21:38:53.638Z,16.10
2019-04-25T21:41:40.867Z,16.00
2019-04-25T21:44:26.370Z,16.00
2019-04-25T21:47:11.356Z,16.00
2019-04-25T21:49:56.777Z,15.90
2019-04-25T21:52:42.673Z,15.80
2019-04-25T21:55:29.291Z,15.70
2019-04-25T21:58:14.630Z,15.70
2019-04-25T22:01:04.415Z,15.60
2019-04-25T22:03:49.789Z,15.60
2019-04-25T22:06:35.710Z,15.60
2019-04-25T22:09:22.310Z,15.60
2019-04-25T22:12:09.928Z,15.60
2019-04-25T22:14:55.006Z,15.40
2019-04-25T22:17:40.817Z,15.20
2019-04-25T22:20:26.189Z,15.20
2019-04-25T22:23:12.483Z,14.90
2019-04-25T22:25:58.847Z,14.70
2019-04-25T22:28:44.419Z,14.70
2019-04-25T22:31:31.258Z,14.70
2019-04-25T22:34:18.057Z,14.60
2019-04-25T22:37:04.157Z,14.50
2019-04-25T22:39:49.537Z,14.20
2019-04-25T22:42:34.701Z,14.10
2019-04-25T22:45:19.826Z,14.00
2019-04-25T22:48:05.026Z,14.00
2019-04-25T22:50:50.596Z,13.70
2019-04-25T22:53:35.817Z,13.70
2019-04-25T22:56:21.237Z,13.70
2019-04-25T22:59:06.894Z,13.70
2019-04-25T23:01:59.628Z,13.60
2019-04-25T23:05:05.368Z,13.50
2019-04-25T23:07:44.883Z,13.40
2019-04-25T23:10:29.807Z,13.30
2019-04-25T23:13:15.268Z,13.20
2019-04-25T23:16:00.430Z,13.20
2019-04-25T23:18:45.210Z,13.20
2019-04-25T23:21:30.404Z,13.20
2019-04-25T23:24:17.050Z,13.20
2019-04-25T23:27:06.583Z,13.20
2019-04-25T23:29:51.548Z,13.30
2019-04-25T23:32:36.918Z,13.20
2019-04-25T23:35:29.442Z,13.20
2019-04-25T23:38:09.891Z,13.30
2019-04-25T23:40:55.295Z,13.30
2019-04-25T23:43:40.698Z,13.30
2019-04-25T23:46:27.149Z,13.30
2019-04-25T23:49:12.731Z,13.30
2019-04-25T23:51:57.721Z,13.30
2019-04-25T23:54:43.196Z,13.20
2019-04-25T23:57:28.555Z,13.10
